Flight Track Log - Related Links

Times and Time Zones

All times are in EDT time to prevent confusion due to time zone crossing. See the KFS20 flight status page for this flight to view local times or setup timezone preferences in your user account.

Time Position Orientation Groundspeed Altitude Reporting Facility
EDT Latitude Longitude Course Direction KTS MPH feet Rate Location/Type
Fri 02:58:16 PM 42.2561 -83.5147 310° West 160 184 1,500  Level Cleveland Center
Fri 02:59:06 PM 42.2781 -83.5497 310° West 194 223 2,500 1,552 Climbing Cleveland Center
Fri 03:00:12 PM 42.3167 -83.5936 320° Northwest 196 226 4,500 1,686 Climbing Cleveland Center
Fri 03:01:07 PM 42.3222 -83.5319 83° East 198 228 5,900 818 Climbing Cleveland Center
Fri 03:02:02 PM 42.2969 -83.4633 116° Southeast 229 264 6,000 52 Climbing Cleveland Center
Fri 03:03:03 PM 42.2656 -83.3861 119° Southeast 234 269 6,000  Level Cleveland Center
Fri 03:04:04 PM 42.2383 -83.3036 114° Southeast 232 267 6,000 52 Level Cleveland Center
Fri 03:04:58 PM 42.2147 -83.2383 116° Southeast 226 260 6,100  Climbing Cleveland Center
Fri 03:06:06 PM 42.1750 -83.1581 124° Southeast 226 260 6,000 -45 Descending Cleveland Center
Fri 03:07:12 PM 42.1286 -83.0889 132° Southeast 228 262 6,000  Level Cleveland Center
Fri 03:08:07 PM 42.0881 -83.0342 135° Southeast 226 260 6,000  Level Cleveland Center
Fri 03:09:08 PM 42.0347 -82.9931 150° Southeast 224 258 6,000 148 Level Cleveland Center
Fri 03:10:09 PM 41.9792 -82.9603 156° South 221 254 6,300 443 Climbing Cleveland Center
Fri 03:11:10 PM 41.9214 -82.9272 157° South 202 232 6,900 442 Climbing Cleveland Center
Fri 03:11:44 PM 41.8883 -82.9094 158° South 204 235 7,000 64 Climbing Cleveland Center
Fri 03:12:44 PM 41.8328 -82.8767 156° South 218 251 7,000  Level Cleveland Center
Fri 03:13:45 PM 41.7750 -82.8469 159° South 223 257 7,000  Level Cleveland Center
Fri 03:14:45 PM 41.7214 -82.8142 155° Southeast 222 255 7,000  Level Cleveland Center
Fri 03:15:46 PM 41.6617 -82.7817 158° South 224 258 7,000 -443 Level Cleveland Center
Fri 03:16:47 PM 41.6017 -82.7492 158° South 230 265 6,100 -885 Descending Cleveland Center
Fri 03:18:00 PM 41.5490 -82.7199 156° South  Level FlightAware Approximate
Fri 03:25:00 PM 41.2454 -82.5548 163° South  Level FlightAware Approximate

Login

Don't have an account? Register now (free) for customized features, flight alerts, and more!